sensor_id;sensor_type;location;lat;lon;timestamp;pressure;altitude;pressure_sealevel;temperature;humidity
70458;BME280;57919;56.194;95.716;2023-06-14T00:04:26;98451.88;;;11.19;77.36
70458;BME280;57919;56.194;95.716;2023-06-14T00:14:28;98472.78;;;11.09;77.47
70458;BME280;57919;56.194;95.716;2023-06-14T00:24:30;98459.81;;;10.95;77.92
70458;BME280;57919;56.194;95.716;2023-06-14T00:34:32;98474.19;;;10.95;77.99
70458;BME280;57919;56.194;95.716;2023-06-14T00:44:34;98480.91;;;11.09;77.88
70458;BME280;57919;56.194;95.716;2023-06-14T00:54:37;98473.84;;;11.16;78.15
70458;BME280;57919;56.194;95.716;2023-06-14T01:04:39;98471.94;;;11.35;77.63
70458;BME280;57919;56.194;95.716;2023-06-14T01:14:43;98455.75;;;11.69;77.08
70458;BME280;57919;56.194;95.716;2023-06-14T01:24:46;98456.09;;;12.00;76.65
70458;BME280;57919;56.194;95.716;2023-06-14T01:34:48;98433.31;;;12.26;76.25
70458;BME280;57919;56.194;95.716;2023-06-14T01:44:51;98433.88;;;12.46;75.77
70458;BME280;57919;56.194;95.716;2023-06-14T01:54:55;98415.59;;;12.65;75.00
70458;BME280;57919;56.194;95.716;2023-06-14T02:04:57;98436.63;;;12.87;74.76
70458;BME280;57919;56.194;95.716;2023-06-14T02:14:59;98436.47;;;12.80;74.91
70458;BME280;57919;56.194;95.716;2023-06-14T02:25:02;98430.84;;;13.06;74.32
70458;BME280;57919;56.194;95.716;2023-06-14T02:35:06;98453.97;;;13.27;73.40
70458;BME280;57919;56.194;95.716;2023-06-14T02:45:10;98484.13;;;12.83;73.79
70458;BME280;57919;56.194;95.716;2023-06-14T02:55:12;98488.16;;;12.63;74.17
70458;BME280;57919;56.194;95.716;2023-06-14T03:05:14;98486.41;;;12.45;74.76
70458;BME280;57919;56.194;95.716;2023-06-14T03:15:17;98473.88;;;12.44;75.26
70458;BME280;57919;56.194;95.716;2023-06-14T03:25:22;98476.97;;;12.07;77.41
70458;BME280;57919;56.194;95.716;2023-06-14T03:35:28;98474.47;;;12.22;77.76
70458;BME280;57919;56.194;95.716;2023-06-14T03:45:30;98454.06;;;12.52;77.28
70458;BME280;57919;56.194;95.716;2023-06-14T03:55:34;98468.00;;;12.73;76.52
70458;BME280;57919;56.194;95.716;2023-06-14T04:05:37;98450.44;;;12.35;78.01
70458;BME280;57919;56.194;95.716;2023-06-14T04:15:39;98457.41;;;12.38;77.88
70458;BME280;57919;56.194;95.716;2023-06-14T04:25:44;98452.19;;;12.60;77.10
70458;BME280;57919;56.194;95.716;2023-06-14T04:35:47;98477.56;;;12.35;77.37
70458;BME280;57919;56.194;95.716;2023-06-14T04:45:51;98498.56;;;12.25;77.85
70458;BME280;57919;56.194;95.716;2023-06-14T04:55:53;98496.16;;;12.22;77.90
70458;BME280;57919;56.194;95.716;2023-06-14T05:05:57;98497.69;;;12.16;79.94
70458;BME280;57919;56.194;95.716;2023-06-14T05:15:59;98513.16;;;12.32;79.13
70458;BME280;57919;56.194;95.716;2023-06-14T05:26:02;98520.88;;;12.11;80.16
70458;BME280;57919;56.194;95.716;2023-06-14T05:36:05;98515.09;;;12.06;79.63
70458;BME280;57919;56.194;95.716;2023-06-14T05:46:07;98512.28;;;12.23;79.95
70458;BME280;57919;56.194;95.716;2023-06-14T05:56:09;98512.50;;;12.38;80.49
70458;BME280;57919;56.194;95.716;2023-06-14T06:06:12;98518.50;;;12.58;79.06
70458;BME280;57919;56.194;95.716;2023-06-14T06:16:14;98531.44;;;12.80;78.30
70458;BME280;57919;56.194;95.716;2023-06-14T06:26:16;98548.09;;;12.85;79.15
70458;BME280;57919;56.194;95.716;2023-06-14T06:36:18;98543.03;;;12.99;78.10
70458;BME280;57919;56.194;95.716;2023-06-14T06:46:20;98557.34;;;13.17;78.22
70458;BME280;57919;56.194;95.716;2023-06-14T06:56:22;98557.34;;;13.74;76.21
70458;BME280;57919;56.194;95.716;2023-06-14T07:06:25;98539.44;;;14.04;74.86
70458;BME280;57919;56.194;95.716;2023-06-14T07:16:28;98581.28;;;13.86;75.34
70458;BME280;57919;56.194;95.716;2023-06-14T07:26:30;98554.13;;;13.38;76.43
70458;BME280;57919;56.194;95.716;2023-06-14T07:36:32;98539.53;;;13.55;76.83
70458;BME280;57919;56.194;95.716;2023-06-14T07:46:34;98569.59;;;13.53;76.23
70458;BME280;57919;56.194;95.716;2023-06-14T07:56:36;98624.41;;;12.40;75.93
70458;BME280;57919;56.194;95.716;2023-06-14T08:06:37;98641.53;;;12.15;76.71
70458;BME280;57919;56.194;95.716;2023-06-14T08:16:40;98640.75;;;12.56;76.23
70458;BME280;57919;56.194;95.716;2023-06-14T08:26:42;98623.09;;;12.94;75.34
70458;BME280;57919;56.194;95.716;2023-06-14T08:36:44;98618.84;;;13.67;75.38
70458;BME280;57919;56.194;95.716;2023-06-14T08:46:48;98637.69;;;13.93;72.96
70458;BME280;57919;56.194;95.716;2023-06-14T08:56:49;98648.06;;;13.89;71.62
70458;BME280;57919;56.194;95.716;2023-06-14T09:06:53;98646.66;;;14.50;71.32
70458;BME280;57919;56.194;95.716;2023-06-14T09:16:56;98640.91;;;14.84;70.00
70458;BME280;57919;56.194;95.716;2023-06-14T09:26:57;98655.97;;;14.64;68.46
70458;BME280;57919;56.194;95.716;2023-06-14T09:37:00;98662.25;;;14.64;67.17
70458;BME280;57919;56.194;95.716;2023-06-14T09:47:02;98645.63;;;14.51;67.66
70458;BME280;57919;56.194;95.716;2023-06-14T09:57:05;98649.38;;;14.50;67.78
70458;BME280;57919;56.194;95.716;2023-06-14T10:07:09;98676.06;;;14.54;67.04
70458;BME280;57919;56.194;95.716;2023-06-14T10:17:20;98676.75;;;14.57;66.42
70458;BME280;57919;56.194;95.716;2023-06-14T10:27:23;98679.63;;;14.63;65.48
70458;BME280;57919;56.194;95.716;2023-06-14T10:37:27;98684.88;;;15.12;65.70
70458;BME280;57919;56.194;95.716;2023-06-14T10:47:31;98699.44;;;14.96;65.23
70458;BME280;57919;56.194;95.716;2023-06-14T10:57:34;98711.81;;;14.51;66.93
70458;BME280;57919;56.194;95.716;2023-06-14T11:07:42;98761.94;;;12.22;68.25
70458;BME280;57919;56.194;95.716;2023-06-14T11:17:52;98739.00;;;11.63;70.63
70458;BME280;57919;56.194;95.716;2023-06-14T11:27:58;98744.44;;;11.99;69.85
70458;BME280;57919;56.194;95.716;2023-06-14T11:38:03;98754.47;;;12.24;69.14
70458;BME280;57919;56.194;95.716;2023-06-14T11:48:06;98763.06;;;12.37;68.14
70458;BME280;57919;56.194;95.716;2023-06-14T11:58:10;98769.09;;;12.49;67.29
70458;BME280;57919;56.194;95.716;2023-06-14T12:08:12;98773.81;;;12.73;66.11
70458;BME280;57919;56.194;95.716;2023-06-14T12:18:18;98792.13;;;12.45;64.88
70458;BME280;57919;56.194;95.716;2023-06-14T12:28:21;98814.59;;;12.37;65.19
70458;BME280;57919;56.194;95.716;2023-06-14T12:38:24;98832.81;;;12.27;64.70
70458;BME280;57919;56.194;95.716;2023-06-14T12:48:26;98846.69;;;12.24;64.74
70458;BME280;57919;56.194;95.716;2023-06-14T12:58:32;98861.25;;;12.23;64.46
70458;BME280;57919;56.194;95.716;2023-06-14T13:08:34;98912.31;;;12.10;63.30
70458;BME280;57919;56.194;95.716;2023-06-14T13:18:36;98930.97;;;11.48;64.79
70458;BME280;57919;56.194;95.716;2023-06-14T13:28:38;98950.97;;;11.38;65.74
70458;BME280;57919;56.194;95.716;2023-06-14T13:38:40;98966.09;;;11.30;65.99
70458;BME280;57919;56.194;95.716;2023-06-14T13:48:41;98986.34;;;11.26;65.78
70458;BME280;57919;56.194;95.716;2023-06-14T13:58:44;99001.13;;;11.42;65.94
70458;BME280;57919;56.194;95.716;2023-06-14T14:08:46;99017.97;;;11.36;65.74
70458;BME280;57919;56.194;95.716;2023-06-14T14:18:48;99030.81;;;11.14;66.47
70458;BME280;57919;56.194;95.716;2023-06-14T14:28:51;99050.19;;;11.00;67.04
70458;BME280;57919;56.194;95.716;2023-06-14T14:38:53;99056.75;;;10.97;67.01
70458;BME280;57919;56.194;95.716;2023-06-14T14:48:55;99065.72;;;10.79;68.13
70458;BME280;57919;56.194;95.716;2023-06-14T14:58:57;99093.47;;;10.81;68.29
70458;BME280;57919;56.194;95.716;2023-06-14T15:08:59;99094.31;;;10.72;67.92
70458;BME280;57919;56.194;95.716;2023-06-14T15:19:01;99105.69;;;10.65;68.82
70458;BME280;57919;56.194;95.716;2023-06-14T15:29:03;99102.72;;;10.68;68.43
70458;BME280;57919;56.194;95.716;2023-06-14T15:39:05;99102.56;;;10.60;68.40
70458;BME280;57919;56.194;95.716;2023-06-14T15:49:10;99105.38;;;10.49;68.34
70458;BME280;57919;56.194;95.716;2023-06-14T15:59:12;99098.50;;;10.35;68.25
70458;BME280;57919;56.194;95.716;2023-06-14T16:09:15;99108.72;;;10.32;67.92
70458;BME280;57919;56.194;95.716;2023-06-14T16:19:17;99112.50;;;10.20;67.66
70458;BME280;57919;56.194;95.716;2023-06-14T16:29:19;99114.19;;;9.90;67.87
70458;BME280;57919;56.194;95.716;2023-06-14T16:39:21;99120.72;;;9.67;67.39
70458;BME280;57919;56.194;95.716;2023-06-14T16:49:23;99120.38;;;9.60;67.67
70458;BME280;57919;56.194;95.716;2023-06-14T16:59:25;99124.75;;;9.52;67.86
70458;BME280;57919;56.194;95.716;2023-06-14T17:09:27;99132.56;;;9.55;67.45
70458;BME280;57919;56.194;95.716;2023-06-14T17:19:29;99130.53;;;9.47;67.68
70458;BME280;57919;56.194;95.716;2023-06-14T17:29:31;99135.47;;;9.42;67.84
70458;BME280;57919;56.194;95.716;2023-06-14T17:39:33;99153.38;;;9.43;67.41
70458;BME280;57919;56.194;95.716;2023-06-14T17:49:37;99165.34;;;9.29;67.64
70458;BME280;57919;56.194;95.716;2023-06-14T17:59:39;99160.78;;;9.30;67.24
70458;BME280;57919;56.194;95.716;2023-06-14T18:09:41;99164.66;;;9.16;67.86
70458;BME280;57919;56.194;95.716;2023-06-14T18:19:43;99158.31;;;9.06;67.17
70458;BME280;57919;56.194;95.716;2023-06-14T18:29:45;99177.69;;;9.00;67.27
70458;BME280;57919;56.194;95.716;2023-06-14T18:39:48;99176.22;;;8.96;67.23
70458;BME280;57919;56.194;95.716;2023-06-14T18:49:50;99172.84;;;8.83;67.73
70458;BME280;57919;56.194;95.716;2023-06-14T18:59:52;99183.88;;;8.68;67.85
70458;BME280;57919;56.194;95.716;2023-06-14T19:09:54;99181.31;;;8.45;67.74
70458;BME280;57919;56.194;95.716;2023-06-14T19:19:56;99181.41;;;8.32;68.24
70458;BME280;57919;56.194;95.716;2023-06-14T19:29:58;99184.59;;;8.26;68.01
70458;BME280;57919;56.194;95.716;2023-06-14T19:40:01;99177.63;;;8.23;68.14
70458;BME280;57919;56.194;95.716;2023-06-14T19:50:03;99186.78;;;8.09;68.41
70458;BME280;57919;56.194;95.716;2023-06-14T20:00:08;99179.69;;;8.08;68.79
70458;BME280;57919;56.194;95.716;2023-06-14T20:10:11;99178.69;;;7.98;69.03
70458;BME280;57919;56.194;95.716;2023-06-14T20:20:12;99173.31;;;7.98;69.47
70458;BME280;57919;56.194;95.716;2023-06-14T20:30:15;99177.59;;;8.12;69.31
70458;BME280;57919;56.194;95.716;2023-06-14T20:40:21;99172.56;;;7.96;69.94
70458;BME280;57919;56.194;95.716;2023-06-14T20:50:23;99167.16;;;7.85;70.67
70458;BME280;57919;56.194;95.716;2023-06-14T21:00:26;99176.16;;;7.62;71.47
70458;BME280;57919;56.194;95.716;2023-06-14T21:10:28;99180.72;;;7.37;72.41
70458;BME280;57919;56.194;95.716;2023-06-14T21:20:32;99184.72;;;7.08;73.53
70458;BME280;57919;56.194;95.716;2023-06-14T21:30:35;99200.63;;;6.87;73.29
70458;BME280;57919;56.194;95.716;2023-06-14T21:40:37;99196.97;;;6.88;73.79
70458;BME280;57919;56.194;95.716;2023-06-14T21:50:39;99196.75;;;7.15;74.28
70458;BME280;57919;56.194;95.716;2023-06-14T22:00:41;99206.00;;;7.59;73.33
70458;BME280;57919;56.194;95.716;2023-06-14T22:10:43;99198.03;;;7.57;72.55
70458;BME280;57919;56.194;95.716;2023-06-14T22:20:45;99198.00;;;7.46;73.39
70458;BME280;57919;56.194;95.716;2023-06-14T22:30:47;99196.50;;;7.42;73.11
70458;BME280;57919;56.194;95.716;2023-06-14T22:40:50;99189.09;;;7.57;73.01
70458;BME280;57919;56.194;95.716;2023-06-14T22:50:52;99206.53;;;8.21;71.99
70458;BME280;57919;56.194;95.716;2023-06-14T23:00:53;99187.81;;;8.64;71.23
70458;BME280;57919;56.194;95.716;2023-06-14T23:10:55;99181.88;;;9.89;68.69
70458;BME280;57919;56.194;95.716;2023-06-14T23:20:58;99165.22;;;11.35;65.77
70458;BME280;57919;56.194;95.716;2023-06-14T23:31:03;99169.34;;;12.06;63.43
70458;BME280;57919;56.194;95.716;2023-06-14T23:41:13;99160.34;;;12.52;61.89
70458;BME280;57919;56.194;95.716;2023-06-14T23:51:17;99147.91;;;14.11;58.28
